sensor_id;sensor_type;location;lat;lon;timestamp;P1;durP1;ratioP1;P2;durP2;ratioP2
12222;SDS011;6174;49.058;8.524;2024-03-06T06:02:58;3.67;;;3.37;;
12222;SDS011;6174;49.058;8.524;2024-03-06T06:05:25;4.77;;;3.20;;
12222;SDS011;6174;49.058;8.524;2024-03-06T06:07:51;3.53;;;3.00;;
12222;SDS011;6174;49.058;8.524;2024-03-06T06:10:18;3.00;;;2.80;;
12222;SDS011;6174;49.058;8.524;2024-03-06T06:12:45;4.00;;;3.07;;
12222;SDS011;6174;49.058;8.524;2024-03-06T06:15:12;3.40;;;3.00;;
12222;SDS011;6174;49.058;8.524;2024-03-06T06:17:40;5.70;;;5.03;;
12222;SDS011;6174;49.058;8.524;2024-03-06T06:20:08;5.73;;;4.90;;
12222;SDS011;6174;49.058;8.524;2024-03-06T06:22:39;4.07;;;3.77;;
12222;SDS011;6174;49.058;8.524;2024-03-06T06:25:06;8.73;;;5.57;;
12222;SDS011;6174;49.058;8.524;2024-03-06T06:27:34;6.07;;;4.47;;
12222;SDS011;6174;49.058;8.524;2024-03-06T06:30:01;5.00;;;3.97;;
12222;SDS011;6174;49.058;8.524;2024-03-06T06:32:28;4.20;;;3.70;;
12222;SDS011;6174;49.058;8.524;2024-03-06T06:34:56;4.70;;;3.70;;
12222;SDS011;6174;49.058;8.524;2024-03-06T06:37:24;6.43;;;5.93;;
12222;SDS011;6174;49.058;8.524;2024-03-06T06:39:50;6.93;;;6.03;;
12222;SDS011;6174;49.058;8.524;2024-03-06T06:42:17;7.67;;;6.23;;
12222;SDS011;6174;49.058;8.524;2024-03-06T06:44:44;6.43;;;5.77;;
12222;SDS011;6174;49.058;8.524;2024-03-06T06:47:11;4.70;;;4.30;;
12222;SDS011;6174;49.058;8.524;2024-03-06T06:49:38;4.90;;;4.27;;
12222;SDS011;6174;49.058;8.524;2024-03-06T06:52:06;5.17;;;4.67;;
12222;SDS011;6174;49.058;8.524;2024-03-06T06:54:33;5.87;;;5.00;;
12222;SDS011;6174;49.058;8.524;2024-03-06T06:56:59;4.77;;;4.27;;
12222;SDS011;6174;49.058;8.524;2024-03-06T06:59:25;4.80;;;4.27;;
12222;SDS011;6174;49.058;8.524;2024-03-06T07:01:53;5.03;;;4.30;;
12222;SDS011;6174;49.058;8.524;2024-03-06T07:04:20;5.37;;;4.40;;
12222;SDS011;6174;49.058;8.524;2024-03-06T07:06:49;5.20;;;4.70;;
12222;SDS011;6174;49.058;8.524;2024-03-06T07:09:17;5.90;;;5.37;;
12222;SDS011;6174;49.058;8.524;2024-03-06T07:11:45;7.30;;;4.77;;
12222;SDS011;6174;49.058;8.524;2024-03-06T07:14:12;6.93;;;5.10;;
12222;SDS011;6174;49.058;8.524;2024-03-06T07:16:41;5.83;;;5.33;;
12222;SDS011;6174;49.058;8.524;2024-03-06T07:19:07;5.53;;;4.97;;
12222;SDS011;6174;49.058;8.524;2024-03-06T07:21:34;5.60;;;5.07;;
12222;SDS011;6174;49.058;8.524;2024-03-06T07:24:01;5.63;;;4.97;;
12222;SDS011;6174;49.058;8.524;2024-03-06T07:26:29;5.93;;;4.77;;
12222;SDS011;6174;49.058;8.524;2024-03-06T07:28:58;5.70;;;4.93;;
12222;SDS011;6174;49.058;8.524;2024-03-06T07:31:25;5.17;;;4.67;;
12222;SDS011;6174;49.058;8.524;2024-03-06T07:33:51;8.17;;;4.73;;
12222;SDS011;6174;49.058;8.524;2024-03-06T07:36:18;5.30;;;4.80;;
12222;SDS011;6174;49.058;8.524;2024-03-06T07:38:45;6.03;;;4.50;;
12222;SDS011;6174;49.058;8.524;2024-03-06T07:41:12;5.30;;;4.33;;
12222;SDS011;6174;49.058;8.524;2024-03-06T07:43:41;4.60;;;4.20;;
12222;SDS011;6174;49.058;8.524;2024-03-06T07:46:07;4.60;;;4.20;;
12222;SDS011;6174;49.058;8.524;2024-03-06T07:48:35;4.80;;;4.30;;
12222;SDS011;6174;49.058;8.524;2024-03-06T07:51:03;4.47;;;3.83;;
12222;SDS011;6174;49.058;8.524;2024-03-06T07:53:30;4.40;;;3.87;;
12222;SDS011;6174;49.058;8.524;2024-03-06T07:55:57;5.57;;;4.43;;
12222;SDS011;6174;49.058;8.524;2024-03-06T07:58:24;4.40;;;3.97;;
12222;SDS011;6174;49.058;8.524;2024-03-06T08:00:52;5.60;;;4.13;;
12222;SDS011;6174;49.058;8.524;2024-03-06T08:03:21;5.07;;;4.57;;
12222;SDS011;6174;49.058;8.524;2024-03-06T08:05:49;5.07;;;4.10;;
12222;SDS011;6174;49.058;8.524;2024-03-06T08:08:17;4.70;;;4.30;;
12222;SDS011;6174;49.058;8.524;2024-03-06T08:11:00;5.27;;;4.43;;
12222;SDS011;6174;49.058;8.524;2024-03-06T08:13:46;5.63;;;4.10;;
12222;SDS011;6174;49.058;8.524;2024-03-06T08:16:16;5.57;;;4.10;;
12222;SDS011;6174;49.058;8.524;2024-03-06T08:21:30;4.87;;;4.37;;
12222;SDS011;6174;49.058;8.524;2024-03-06T08:23:57;4.47;;;4.07;;
12222;SDS011;6174;49.058;8.524;2024-03-06T08:26:24;5.70;;;4.73;;
12222;SDS011;6174;49.058;8.524;2024-03-06T08:28:51;5.70;;;4.27;;
12222;SDS011;6174;49.058;8.524;2024-03-06T08:31:19;5.30;;;4.80;;
12222;SDS011;6174;49.058;8.524;2024-03-06T08:33:48;4.97;;;4.47;;
12222;SDS011;6174;49.058;8.524;2024-03-06T08:36:22;8.07;;;4.60;;
12222;SDS011;6174;49.058;8.524;2024-03-06T08:38:50;5.00;;;4.47;;
12222;SDS011;6174;49.058;8.524;2024-03-06T08:41:17;4.60;;;4.20;;
12222;SDS011;6174;49.058;8.524;2024-03-06T08:56:07;4.97;;;4.50;;
12222;SDS011;6174;49.058;8.524;2024-03-06T08:58:48;5.40;;;4.90;;
12222;SDS011;6174;49.058;8.524;2024-03-06T09:01:51;6.00;;;5.30;;
12222;SDS011;6174;49.058;8.524;2024-03-06T09:04:22;5.60;;;5.10;;
12222;SDS011;6174;49.058;8.524;2024-03-06T09:09:46;5.97;;;5.13;;
12222;SDS011;6174;49.058;8.524;2024-03-06T09:12:13;5.97;;;5.37;;
12222;SDS011;6174;49.058;8.524;2024-03-06T09:14:40;5.73;;;5.23;;
12222;SDS011;6174;49.058;8.524;2024-03-06T09:17:07;5.87;;;5.40;;
12222;SDS011;6174;49.058;8.524;2024-03-06T09:19:35;6.20;;;5.70;;
12222;SDS011;6174;49.058;8.524;2024-03-06T09:22:05;6.23;;;5.63;;
12222;SDS011;6174;49.058;8.524;2024-03-06T09:24:32;6.13;;;5.53;;
12222;SDS011;6174;49.058;8.524;2024-03-06T09:27:02;6.20;;;5.70;;
12222;SDS011;6174;49.058;8.524;2024-03-06T09:29:29;6.80;;;6.10;;
12222;SDS011;6174;49.058;8.524;2024-03-06T09:31:56;6.47;;;5.87;;
12222;SDS011;6174;49.058;8.524;2024-03-06T09:38:10;5.93;;;5.37;;
12222;SDS011;6174;49.058;8.524;2024-03-06T09:40:58;5.90;;;5.27;;
12222;SDS011;6174;49.058;8.524;2024-03-06T09:43:26;6.47;;;5.87;;
12222;SDS011;6174;49.058;8.524;2024-03-06T09:45:53;6.23;;;5.47;;
12222;SDS011;6174;49.058;8.524;2024-03-06T09:48:22;6.47;;;5.53;;
12222;SDS011;6174;49.058;8.524;2024-03-06T09:54:36;6.13;;;5.63;;
12222;SDS011;6174;49.058;8.524;2024-03-06T10:06:22;6.30;;;5.80;;
12222;SDS011;6174;49.058;8.524;2024-03-06T10:09:03;6.63;;;6.03;;
12222;SDS011;6174;49.058;8.524;2024-03-06T10:11:38;7.40;;;6.70;;
12222;SDS011;6174;49.058;8.524;2024-03-06T10:21:36;7.47;;;6.77;;
12222;SDS011;6174;49.058;8.524;2024-03-06T10:24:05;7.93;;;7.13;;
12222;SDS011;6174;49.058;8.524;2024-03-06T10:26:50;7.53;;;6.87;;
12222;SDS011;6174;49.058;8.524;2024-03-06T10:29:19;7.93;;;7.23;;
12222;SDS011;6174;49.058;8.524;2024-03-06T10:31:47;7.53;;;6.93;;
12222;SDS011;6174;49.058;8.524;2024-03-06T10:34:15;7.27;;;6.70;;
12222;SDS011;6174;49.058;8.524;2024-03-06T10:36:46;7.20;;;6.60;;
12222;SDS011;6174;49.058;8.524;2024-03-06T10:42:21;7.63;;;6.70;;
12222;SDS011;6174;49.058;8.524;2024-03-06T10:47:38;7.23;;;6.53;;
12222;SDS011;6174;49.058;8.524;2024-03-06T10:50:46;7.20;;;6.03;;
12222;SDS011;6174;49.058;8.524;2024-03-06T10:59:28;7.03;;;6.43;;
12222;SDS011;6174;49.058;8.524;2024-03-06T11:01:58;7.23;;;6.60;;
12222;SDS011;6174;49.058;8.524;2024-03-06T11:04:33;6.63;;;6.00;;
12222;SDS011;6174;49.058;8.524;2024-03-06T11:07:04;6.10;;;5.60;;
12222;SDS011;6174;49.058;8.524;2024-03-06T11:23:12;5.60;;;4.97;;
12222;SDS011;6174;49.058;8.524;2024-03-06T11:45:32;6.53;;;5.47;;
12222;SDS011;6174;49.058;8.524;2024-03-06T11:59:51;5.63;;;5.13;;
12222;SDS011;6174;49.058;8.524;2024-03-06T16:18:50;11.33;;;9.97;;
12222;SDS011;6174;49.058;8.524;2024-03-06T16:21:38;11.63;;;10.43;;
12222;SDS011;6174;49.058;8.524;2024-03-06T16:24:24;13.03;;;11.37;;
12222;SDS011;6174;49.058;8.524;2024-03-06T16:26:52;11.70;;;10.70;;
12222;SDS011;6174;49.058;8.524;2024-03-06T16:29:22;16.23;;;14.53;;
12222;SDS011;6174;49.058;8.524;2024-03-06T16:31:50;14.43;;;13.10;;
12222;SDS011;6174;49.058;8.524;2024-03-06T16:34:18;10.97;;;9.87;;
12222;SDS011;6174;49.058;8.524;2024-03-06T16:36:50;11.37;;;10.27;;
12222;SDS011;6174;49.058;8.524;2024-03-06T16:39:18;11.80;;;10.57;;
12222;SDS011;6174;49.058;8.524;2024-03-06T16:42:07;11.90;;;10.73;;
12222;SDS011;6174;49.058;8.524;2024-03-06T16:44:37;14.53;;;13.13;;
12222;SDS011;6174;49.058;8.524;2024-03-06T16:47:07;13.73;;;12.33;;
12222;SDS011;6174;49.058;8.524;2024-03-06T16:49:34;16.13;;;14.43;;
12222;SDS011;6174;49.058;8.524;2024-03-06T16:52:05;14.67;;;13.27;;
12222;SDS011;6174;49.058;8.524;2024-03-06T16:54:42;15.37;;;13.77;;
12222;SDS011;6174;49.058;8.524;2024-03-06T16:57:13;15.40;;;13.90;;
12222;SDS011;6174;49.058;8.524;2024-03-06T17:00:19;15.33;;;13.83;;
12222;SDS011;6174;49.058;8.524;2024-03-06T17:03:07;16.73;;;14.93;;
12222;SDS011;6174;49.058;8.524;2024-03-06T17:05:34;15.00;;;13.50;;
12222;SDS011;6174;49.058;8.524;2024-03-06T17:14:11;17.57;;;15.73;;
12222;SDS011;6174;49.058;8.524;2024-03-06T17:19:26;14.07;;;12.67;;
12222;SDS011;6174;49.058;8.524;2024-03-06T17:21:53;13.87;;;12.50;;
12222;SDS011;6174;49.058;8.524;2024-03-06T19:47:49;19.27;;;17.43;;
12222;SDS011;6174;49.058;8.524;2024-03-06T19:50:16;17.20;;;15.53;;
12222;SDS011;6174;49.058;8.524;2024-03-06T19:52:43;18.57;;;16.50;;
12222;SDS011;6174;49.058;8.524;2024-03-06T19:55:14;19.90;;;17.87;;
12222;SDS011;6174;49.058;8.524;2024-03-06T19:57:41;19.87;;;17.87;;
12222;SDS011;6174;49.058;8.524;2024-03-06T20:00:09;20.80;;;18.80;;
12222;SDS011;6174;49.058;8.524;2024-03-06T20:02:36;20.30;;;18.30;;
12222;SDS011;6174;49.058;8.524;2024-03-06T20:05:05;19.80;;;16.93;;
12222;SDS011;6174;49.058;8.524;2024-03-06T20:07:32;17.83;;;16.03;;
12222;SDS011;6174;49.058;8.524;2024-03-06T20:09:59;18.03;;;16.00;;
12222;SDS011;6174;49.058;8.524;2024-03-06T20:12:26;18.50;;;16.70;;
12222;SDS011;6174;49.058;8.524;2024-03-06T20:14:53;20.87;;;18.83;;
12222;SDS011;6174;49.058;8.524;2024-03-06T20:17:20;24.33;;;21.73;;
12222;SDS011;6174;49.058;8.524;2024-03-06T20:19:46;25.17;;;22.57;;
12222;SDS011;6174;49.058;8.524;2024-03-06T20:22:16;23.57;;;21.20;;
12222;SDS011;6174;49.058;8.524;2024-03-06T20:24:43;21.10;;;18.90;;
12222;SDS011;6174;49.058;8.524;2024-03-06T20:27:10;20.63;;;18.53;;
12222;SDS011;6174;49.058;8.524;2024-03-06T20:29:37;21.40;;;18.50;;
12222;SDS011;6174;49.058;8.524;2024-03-06T20:32:04;23.93;;;21.40;;
12222;SDS011;6174;49.058;8.524;2024-03-06T20:34:32;23.53;;;21.13;;
12222;SDS011;6174;49.058;8.524;2024-03-06T20:36:59;22.80;;;20.57;;
12222;SDS011;6174;49.058;8.524;2024-03-06T20:39:29;22.57;;;19.87;;
12222;SDS011;6174;49.058;8.524;2024-03-06T20:41:56;19.90;;;17.90;;
12222;SDS011;6174;49.058;8.524;2024-03-06T20:44:23;20.53;;;18.53;;
12222;SDS011;6174;49.058;8.524;2024-03-06T20:46:50;20.80;;;18.53;;
12222;SDS011;6174;49.058;8.524;2024-03-06T20:49:17;19.73;;;17.83;;
12222;SDS011;6174;49.058;8.524;2024-03-06T20:51:46;20.37;;;18.27;;
12222;SDS011;6174;49.058;8.524;2024-03-06T20:54:13;20.20;;;17.67;;
12222;SDS011;6174;49.058;8.524;2024-03-06T20:56:42;19.90;;;17.80;;
12222;SDS011;6174;49.058;8.524;2024-03-06T20:59:09;19.67;;;17.73;;
12222;SDS011;6174;49.058;8.524;2024-03-06T21:01:37;19.80;;;17.80;;
12222;SDS011;6174;49.058;8.524;2024-03-06T21:04:04;18.83;;;16.83;;
12222;SDS011;6174;49.058;8.524;2024-03-06T21:06:31;21.30;;;18.93;;
12222;SDS011;6174;49.058;8.524;2024-03-06T21:08:57;19.97;;;17.97;;
12222;SDS011;6174;49.058;8.524;2024-03-06T21:11:24;19.30;;;17.40;;
12222;SDS011;6174;49.058;8.524;2024-03-06T21:13:52;20.13;;;17.77;;
12222;SDS011;6174;49.058;8.524;2024-03-06T21:16:19;20.07;;;17.97;;
12222;SDS011;6174;49.058;8.524;2024-03-06T21:18:46;24.13;;;20.63;;
12222;SDS011;6174;49.058;8.524;2024-03-06T21:21:13;21.80;;;18.77;;
12222;SDS011;6174;49.058;8.524;2024-03-06T21:23:40;18.70;;;16.70;;
12222;SDS011;6174;49.058;8.524;2024-03-06T21:26:07;19.57;;;16.80;;
12222;SDS011;6174;49.058;8.524;2024-03-06T21:28:34;22.23;;;19.90;;
12222;SDS011;6174;49.058;8.524;2024-03-06T21:31:02;19.53;;;17.67;;
12222;SDS011;6174;49.058;8.524;2024-03-06T21:33:29;19.70;;;17.67;;
12222;SDS011;6174;49.058;8.524;2024-03-06T21:35:58;20.87;;;17.40;;
12222;SDS011;6174;49.058;8.524;2024-03-06T21:38:25;19.30;;;16.70;;
12222;SDS011;6174;49.058;8.524;2024-03-06T21:40:51;17.77;;;16.00;;
12222;SDS011;6174;49.058;8.524;2024-03-06T21:43:18;19.03;;;16.83;;
12222;SDS011;6174;49.058;8.524;2024-03-06T21:45:45;18.43;;;16.57;;
12222;SDS011;6174;49.058;8.524;2024-03-06T21:48:13;25.00;;;20.50;;
12222;SDS011;6174;49.058;8.524;2024-03-06T21:50:40;21.87;;;19.37;;
12222;SDS011;6174;49.058;8.524;2024-03-06T21:53:07;21.73;;;19.53;;
12222;SDS011;6174;49.058;8.524;2024-03-06T21:55:35;20.27;;;18.13;;
12222;SDS011;6174;49.058;8.524;2024-03-06T21:58:02;19.23;;;17.33;;
12222;SDS011;6174;49.058;8.524;2024-03-06T22:00:30;21.50;;;19.20;;
12222;SDS011;6174;49.058;8.524;2024-03-06T22:02:57;21.83;;;18.83;;
12222;SDS011;6174;49.058;8.524;2024-03-06T22:05:25;20.73;;;18.03;;
12222;SDS011;6174;49.058;8.524;2024-03-06T22:07:51;19.67;;;17.53;;
12222;SDS011;6174;49.058;8.524;2024-03-06T22:10:20;20.27;;;17.60;;
12222;SDS011;6174;49.058;8.524;2024-03-06T22:12:50;19.33;;;17.33;;
12222;SDS011;6174;49.058;8.524;2024-03-06T22:15:17;20.93;;;18.73;;
12222;SDS011;6174;49.058;8.524;2024-03-06T22:17:44;22.47;;;19.93;;
12222;SDS011;6174;49.058;8.524;2024-03-06T22:20:10;20.53;;;18.30;;
12222;SDS011;6174;49.058;8.524;2024-03-06T22:22:38;25.30;;;20.33;;
12222;SDS011;6174;49.058;8.524;2024-03-06T22:25:05;22.70;;;20.40;;
12222;SDS011;6174;49.058;8.524;2024-03-06T22:27:33;23.00;;;20.60;;
12222;SDS011;6174;49.058;8.524;2024-03-06T22:29:59;26.33;;;22.07;;
12222;SDS011;6174;49.058;8.524;2024-03-06T22:32:26;35.83;;;29.20;;
12222;SDS011;6174;49.058;8.524;2024-03-06T22:34:53;39.87;;;33.33;;
12222;SDS011;6174;49.058;8.524;2024-03-06T22:37:20;30.03;;;26.60;;
12222;SDS011;6174;49.058;8.524;2024-03-06T22:39:48;25.57;;;22.83;;
12222;SDS011;6174;49.058;8.524;2024-03-06T22:42:15;23.13;;;20.90;;
